Main page
METAR-TAF:

METAR-TAF

Airports :

Mandalay International Airport

Mandalay, Myanmar

latitude: 21-59N, longitude: 096-06E, elevation: 74 m

Current weather observation

The report was made 55 minutes ago, at 04:30 UTC
Wind 6 kt from the North
Temperature 35°C
Humidity 37%
Pressure 1006 hPa
Visibility: 6000 m
Few clouds at a height of 2000 ft
haze

METAR: VYMD 210430Z 36006KT 6000 HZ FEW020 35/18 Q1006

Time: 11:55 (05:25 UTC)

Forecast

The report was made 6 hours and 25 minutes ago, at 23:00 UTC
Forecast valid from 21 at 00 UTC to 21 at 24 UTC
Wind 5 kt from the Southeast
Visibility: 7000 m
Few clouds at a height of 2000 ft
Temporary
from 21 at 00 UTC to 21 at 06 UTC
Wind 8 kt from the South
Visibility: 6000 m
Scattered clouds at a height of 2000 ft
haze

TAF: VYMD 202300Z 2100/2124 14005KT 7000 FEW020 TEMPO 2100/2106 18008KT 6000 HZ SCT020

Weather observations and forecasts of more than 4000 airports (METAR and TAF reports).

The available stations are represented by yellow and red dots on the map.

Hover mouse over dot to see the name of the station.

Then click to see weather observations and forecasts.

To change the map : click on the green buttons with a black cross to zoom in, on the green button with a dash to zoom out, or on the green arrows for adjacent maps.


METAR-TAF: